Time;durP1;ratioP1;P1;durP2;ratioP2;P2;SDS_P1;SDS_P2;PMS_P1;PMS_P2;Temp;Humidity;BMP_temperature;BMP_pressure;BME280_temperature;BME280_humidity;BME280_pressure;Samples;Min_cycle;Max_cycle;Signal;HPM_P1;HPM_P2
2021/03/10 00:00:25;;;;;;;56.20;30.05;;;;;;;4.46;100.00;97374.84;5020133;28;20413;-89
2021/03/10 00:02:51;;;;;;;59.17;29.95;;;;;;;4.41;100.00;97374.16;5021074;28;20052;-88
2021/03/10 00:05:16;;;;;;;58.53;30.48;;;;;;;4.38;100.00;97366.34;5020780;28;20493;-89
2021/03/10 00:07:42;;;;;;;54.67;28.10;;;;;;;4.47;100.00;97370.41;5020552;28;20060;-88
2021/03/10 00:10:10;;;;;;;50.28;27.10;;;;;;;4.44;100.00;97355.50;5020300;28;20025;-87
2021/03/10 00:12:35;;;;;;;47.33;24.35;;;;;;;4.45;100.00;97357.25;5011757;28;20143;-88
2021/03/10 00:15:03;;;;;;;45.53;23.83;;;;;;;4.31;100.00;97351.63;5020062;28;20507;-87
2021/03/10 00:17:28;;;;;;;47.17;24.65;;;;;;;4.21;100.00;97345.88;5020006;28;20045;-87
2021/03/10 00:19:54;;;;;;;46.30;24.52;;;;;;;4.21;100.00;97343.22;5036312;28;20036;-86
2021/03/10 00:22:20;;;;;;;51.05;24.85;;;;;;;4.24;100.00;97347.53;5019492;28;20028;-89
2021/03/10 00:24:45;;;;;;;52.83;25.23;;;;;;;4.17;100.00;97332.81;5028243;28;20056;-89
2021/03/10 00:27:23;;;;;;;47.03;23.55;;;;;;;4.10;100.00;97334.84;5020174;28;20032;-89
2021/03/10 00:30:00;;;;;;;47.85;24.17;;;;;;;4.05;100.00;97328.88;5021653;28;20504;-89
2021/03/10 00:32:27;;;;;;;47.08;23.33;;;;;;;4.05;100.00;97317.44;5019637;28;20147;-88
2021/03/10 00:34:55;;;;;;;45.78;23.50;;;;;;;4.08;99.43;97330.53;5021509;28;20021;-89
2021/03/10 00:37:21;;;;;;;50.35;23.90;;;;;;;3.87;100.00;97320.78;5019667;28;20029;-88
2021/03/10 00:39:48;;;;;;;50.28;24.73;;;;;;;4.02;100.00;97320.19;5035919;28;20032;-88
2021/03/10 00:42:15;;;;;;;56.20;24.80;;;;;;;4.03;100.00;97317.47;5021802;28;20432;-88
2021/03/10 00:44:41;;;;;;;43.88;22.55;;;;;;;4.07;100.00;97311.13;5027208;28;20021;-88
2021/03/10 00:47:07;;;;;;;44.35;23.42;;;;;;;4.13;100.00;97313.53;5019007;28;20086;-88
2021/03/10 00:49:33;;;;;;;45.35;22.55;;;;;;;4.01;100.00;97307.88;5018616;28;20029;-89
2021/03/10 00:51:59;;;;;;;43.50;21.63;;;;;;;3.91;100.00;97295.97;5020011;28;20465;-88
2021/03/10 00:54:24;;;;;;;46.78;23.98;;;;;;;3.75;100.00;97290.41;5019220;28;20041;-88
2021/03/10 00:56:50;;;;;;;49.25;24.58;;;;;;;3.64;100.00;97288.16;5018693;28;20573;-87
2021/03/10 00:59:15;;;;;;;47.50;24.70;;;;;;;3.76;100.00;97292.09;5018935;28;20063;-89
2021/03/10 01:01:41;;;;;;;50.45;24.15;;;;;;;3.70;100.00;97293.22;5019059;28;20025;-87
2021/03/10 01:04:07;;;;;;;54.33;26.02;;;;;;;3.61;100.00;97293.56;5019438;28;20408;-89
2021/03/10 01:06:32;;;;;;;45.95;24.58;;;;;;;3.63;100.00;97302.28;5019235;28;20505;-89
2021/03/10 01:08:58;;;;;;;47.45;23.73;;;;;;;3.60;100.00;97294.47;5019630;28;20496;-88
2021/03/10 01:11:23;;;;;;;44.60;24.17;;;;;;;3.48;100.00;97272.94;5019329;28;20032;-88
2021/03/10 01:13:49;;;;;;;49.65;24.65;;;;;;;3.53;100.00;97279.81;5019628;28;20032;-88
2021/03/10 01:16:15;;;;;;;50.95;24.55;;;;;;;3.59;100.00;97265.47;5019855;28;20217;-89
2021/03/10 01:18:41;;;;;;;51.60;25.10;;;;;;;3.61;100.00;97263.63;5035983;28;20103;-89
2021/03/10 01:21:07;;;;;;;43.65;24.15;;;;;;;3.65;100.00;97265.22;5019366;28;20025;-89
2021/03/10 01:23:32;;;;;;;46.20;23.88;;;;;;;3.67;100.00;97258.97;5020007;28;20075;-88
2021/03/10 01:25:58;;;;;;;48.55;24.35;;;;;;;3.72;100.00;97249.03;5020020;28;20035;-88
2021/03/10 01:28:24;;;;;;;44.05;24.23;;;;;;;3.74;100.00;97249.88;5019668;28;20109;-88
2021/03/10 01:30:49;;;;;;;47.95;24.70;;;;;;;3.75;100.00;97246.28;5040000;28;20087;-88
2021/03/10 01:33:15;;;;;;;47.75;24.77;;;;;;;3.55;100.00;97240.94;5019439;28;20029;-88
2021/03/10 01:35:41;;;;;;;54.63;24.58;;;;;;;3.51;100.00;97239.31;5022200;28;20033;-88
2021/03/10 01:38:06;;;;;;;50.05;24.10;;;;;;;3.50;100.00;97237.63;5022332;28;20021;-89
2021/03/10 01:40:33;;;;;;;46.42;23.70;;;;;;;3.54;100.00;97238.34;5021860;28;20033;-88
2021/03/10 01:43:06;;;;;;;45.17;23.30;;;;;;;3.54;100.00;97241.84;5020696;28;20063;-88
2021/03/10 01:45:32;;;;;;;51.80;24.52;;;;;;;3.55;100.00;97235.66;5018731;28;20112;-88
2021/03/10 01:47:58;;;;;;;53.85;26.20;;;;;;;3.51;100.00;97227.88;5035490;28;20025;-87
2021/03/10 01:50:26;;;;;;;51.70;24.35;;;;;;;3.45;100.00;97228.97;5035959;28;20025;-88
2021/03/10 01:52:54;;;;;;;54.95;26.42;;;;;;;3.38;100.00;97227.53;5003010;28;20528;-87
2021/03/10 01:55:19;;;;;;;52.22;25.88;;;;;;;3.21;100.00;97216.72;5038899;28;20117;-90
2021/03/10 01:57:45;;;;;;;48.28;21.15;;;;;;;3.25;100.00;97227.13;5019064;28;20056;-88
2021/03/10 02:00:11;;;;;;;5.25;3.35;;;;;;;3.22;100.00;97221.09;5017754;28;20055;-87
2021/03/10 02:02:37;;;;;;;6.25;3.60;;;;;;;3.28;100.00;97223.50;5034785;28;20056;-88
2021/03/10 02:05:03;;;;;;;6.47;3.35;;;;;;;3.28;100.00;97215.56;5018521;28;20025;-87
2021/03/10 02:08:13;;;;;;;4.18;3.28;;;;;;;3.35;100.00;97210.91;5018840;28;20029;-87
2021/03/10 02:11:07;;;;;;;2.20;1.73;;;;;;;3.20;100.00;97215.00;5033948;28;20025;-89
2021/03/10 02:13:48;;;;;;;2.50;2.30;;;;;;;3.16;100.00;97208.13;5034776;28;20029;-88
2021/03/10 02:16:27;;;;;;;6.15;4.88;;;;;;;3.04;100.00;97203.31;5023157;28;20058;-88
2021/03/10 02:19:00;;;;;;;3.92;3.58;;;;;;;2.95;100.00;97211.56;5022301;28;20111;-88
2021/03/10 02:21:37;;;;;;;4.90;4.38;;;;;;;2.94;100.00;97209.84;5022291;28;20408;-89
2021/03/10 02:24:24;;;;;;;7.22;3.70;;;;;;;2.87;100.00;97196.00;5022252;28;20453;-89
2021/03/10 02:27:31;;;;;;;3.22;2.92;;;;;;;2.77;100.00;97206.97;5056410;28;20508;-87
2021/03/10 02:30:29;;;;;;;3.30;2.75;;;;;;;2.77;100.00;97188.50;5035937;28;20108;-88
2021/03/10 02:33:02;;;;;;;4.88;3.60;;;;;;;2.83;100.00;97201.47;5044857;28;20186;-89
2021/03/10 02:35:28;;;;;;;1.88;1.77;;;;;;;2.72;100.00;97183.38;5034266;28;20086;-89
2021/03/10 02:37:56;;;;;;;1.52;1.42;;;;;;;2.74;100.00;97182.38;5021714;28;20036;-88
2021/03/10 02:40:24;;;;;;;4.15;2.25;;;;;;;2.64;100.00;97181.03;5022512;28;20063;-88
2021/03/10 02:42:50;;;;;;;2.50;2.30;;;;;;;2.71;100.00;97192.19;5021879;28;20481;-88
2021/03/10 02:45:16;;;;;;;3.25;2.95;;;;;;;2.63;100.00;97168.72;5021917;28;20037;-86
2021/03/10 02:47:42;;;;;;;1.33;1.10;;;;;;;2.60;100.00;97176.75;5020851;28;20067;-87
2021/03/10 02:50:09;;;;;;;1.95;1.77;;;;;;;2.72;100.00;97171.03;5021318;28;20064;-88
2021/03/10 02:52:35;;;;;;;2.63;1.98;;;;;;;2.72;100.00;97165.75;5022498;28;20039;-88
2021/03/10 02:55:01;;;;;;;2.35;2.22;;;;;;;2.82;100.00;97161.00;5021964;28;20563;-89
2021/03/10 02:57:27;;;;;;;6.68;3.08;;;;;;;2.84;100.00;97153.00;5021871;28;20476;-89
2021/03/10 02:59:53;;;;;;;7.93;2.65;;;;;;;2.84;100.00;97161.78;5021432;28;20053;-89
2021/03/10 03:02:19;;;;;;;3.40;2.70;;;;;;;2.89;100.00;97159.81;5021205;28;20090;-88
2021/03/10 03:04:44;;;;;;;2.70;2.17;;;;;;;2.81;100.00;97145.19;5021301;28;20032;-88
2021/03/10 03:07:10;;;;;;;3.35;2.63;;;;;;;2.82;100.00;97146.94;5021269;28;20036;-89
2021/03/10 03:09:36;;;;;;;2.28;2.10;;;;;;;2.85;100.00;97152.09;5021220;28;20037;-88
2021/03/10 03:12:03;;;;;;;2.95;2.47;;;;;;;2.71;100.00;97140.25;5021178;28;20075;-88
2021/03/10 03:14:29;;;;;;;5.18;4.15;;;;;;;2.74;100.00;97155.13;5021289;28;20032;-89
2021/03/10 03:16:55;;;;;;;7.65;5.60;;;;;;;2.66;100.00;97147.50;5021144;28;20068;-89
2021/03/10 03:19:21;;;;;;;7.45;2.88;;;;;;;2.76;100.00;97157.72;5020317;28;20041;-88
2021/03/10 03:21:47;;;;;;;10.10;3.78;;;;;;;2.68;100.00;97148.28;5037083;28;20040;-88
2021/03/10 03:24:14;;;;;;;5.25;2.72;;;;;;;2.68;100.00;97148.28;5020479;28;20095;-88
2021/03/10 03:26:40;;;;;;;4.85;3.72;;;;;;;2.71;100.00;97147.31;5021030;28;20031;-88
2021/03/10 03:29:06;;;;;;;17.85;4.20;;;;;;;2.66;100.00;97128.16;5020778;28;20500;-90
2021/03/10 03:31:34;;;;;;;3.10;2.45;;;;;;;2.77;100.00;97146.25;5038326;28;20032;-90
2021/03/10 03:34:01;;;;;;;1.27;1.08;;;;;;;2.82;100.00;97146.94;5020920;28;20053;-89
2021/03/10 03:36:26;;;;;;;7.38;3.60;;;;;;;2.81;100.00;97150.47;5021050;28;20027;-90
2021/03/10 03:38:52;;;;;;;2.97;2.70;;;;;;;2.70;100.00;97142.97;5020782;28;20486;-87
2021/03/10 03:41:20;;;;;;;1.55;1.40;;;;;;;2.63;100.00;97138.84;5021125;28;20051;-89
2021/03/10 03:43:46;;;;;;;1.92;1.83;;;;;;;2.55;100.00;97138.25;5037652;28;20403;-90
2021/03/10 03:46:12;;;;;;;3.00;2.13;;;;;;;2.55;100.00;97133.81;5021327;28;20089;-88
2021/03/10 03:48:38;;;;;;;3.03;2.13;;;;;;;2.45;100.00;97111.34;5020810;28;20040;-90
2021/03/10 03:51:22;;;;;;;1.95;1.60;;;;;;;2.55;100.00;97128.53;5020300;28;20505;-89
2021/03/10 03:53:56;;;;;;;8.98;2.67;;;;;;;2.61;100.00;97140.69;5020459;28;20076;-88
2021/03/10 03:56:21;;;;;;;8.38;3.25;;;;;;;2.55;100.00;97133.00;5036746;28;20070;-89
2021/03/10 03:58:47;;;;;;;2.65;2.42;;;;;;;2.53;100.00;97133.03;5019985;28;20028;-89
2021/03/10 04:01:13;;;;;;;2.53;1.48;;;;;;;2.51;100.00;97131.38;5020811;28;20044;-89
2021/03/10 04:03:38;;;;;;;1.38;1.35;;;;;;;2.47;100.00;97125.34;5020660;28;20466;-89
2021/03/10 04:06:04;;;;;;;2.13;1.95;;;;;;;2.46;100.00;97130.69;5020807;28;20534;-89
2021/03/10 04:08:30;;;;;;;2.47;1.70;;;;;;;2.42;100.00;97135.22;5020667;28;20071;-89
2021/03/10 04:10:55;;;;;;;2.83;2.45;;;;;;;2.43;100.00;97139.56;5019936;28;20067;-89
2021/03/10 04:13:21;;;;;;;4.60;2.05;;;;;;;2.39;100.00;97127.41;5020187;28;20032;-89
2021/03/10 04:15:46;;;;;;;1.58;1.48;;;;;;;2.37;100.00;97129.22;5020109;28;20054;-89
2021/03/10 04:18:12;;;;;;;4.47;2.83;;;;;;;2.34;100.00;97134.59;5020422;28;20108;-89
2021/03/10 04:20:37;;;;;;;1.77;1.65;;;;;;;2.37;100.00;97131.03;5036823;28;20031;-88
2021/03/10 04:23:03;;;;;;;3.45;2.42;;;;;;;2.45;100.00;97129.81;5020058;28;20063;-89
2021/03/10 04:25:28;;;;;;;2.97;2.70;;;;;;;2.42;100.00;97137.84;5021377;28;20029;-88
2021/03/10 04:27:54;;;;;;;3.25;2.58;;;;;;;2.45;100.00;97129.81;5035710;28;20036;-88
2021/03/10 04:30:20;;;;;;;1.63;1.40;;;;;;;2.45;100.00;97126.31;5019707;28;20463;-87
2021/03/10 04:32:46;;;;;;;4.13;2.05;;;;;;;2.37;100.00;97128.38;5019884;28;20028;-87
2021/03/10 04:35:12;;;;;;;1.75;1.10;;;;;;;2.33;100.00;97127.63;5019278;28;20066;-87
2021/03/10 04:37:40;;;;;;;2.45;2.25;;;;;;;2.35;100.00;97138.97;5019056;28;20036;-85
2021/03/10 04:40:07;;;;;;;4.18;3.03;;;;;;;2.31;100.00;97134.72;5019924;28;20036;-88
2021/03/10 04:42:32;;;;;;;11.48;2.80;;;;;;;2.37;100.00;97129.22;5019514;28;20067;-88
2021/03/10 04:44:58;;;;;;;5.20;4.68;;;;;;;2.37;100.00;97131.84;5019640;28;20111;-91
2021/03/10 04:47:23;;;;;;;2.22;1.77;;;;;;;2.36;100.00;97130.16;5020173;28;20033;-89
2021/03/10 04:49:49;;;;;;;3.03;2.25;;;;;;;2.38;100.00;97136.22;5019731;28;20080;-89
2021/03/10 04:52:16;;;;;;;3.38;1.92;;;;;;;2.40;100.00;97129.09;5019367;28;20094;-88
2021/03/10 04:54:42;;;;;;;2.85;1.92;;;;;;;2.35;100.00;97122.28;5019493;28;20025;-89
2021/03/10 04:57:07;;;;;;;5.30;2.17;;;;;;;2.41;100.00;97124.69;5019198;28;20032;-89
2021/03/10 04:59:33;;;;;;;1.85;1.33;;;;;;;2.32;100.00;97120.63;5018595;28;20045;-89
2021/03/10 05:01:58;;;;;;;1.90;1.77;;;;;;;2.39;100.00;97127.41;5019451;28;20029;-89
2021/03/10 05:04:24;;;;;;;3.05;2.30;;;;;;;2.40;100.00;97123.84;5006684;28;20560;-88
2021/03/10 05:06:49;;;;;;;3.42;2.35;;;;;;;2.42;100.00;97116.75;5000828;28;20034;-88
2021/03/10 05:09:15;;;;;;;3.00;1.38;;;;;;;2.42;100.00;97116.75;4996895;28;20033;-90
2021/03/10 05:11:40;;;;;;;1.40;1.30;;;;;;;2.44;100.00;97120.16;4997036;28;20567;-88
2021/03/10 05:14:06;;;;;;;1.55;1.45;;;;;;;2.45;100.00;97126.31;5013001;28;20042;-90
2021/03/10 05:16:32;;;;;;;2.45;2.25;;;;;;;2.46;100.00;97134.16;4997089;28;20068;-89
2021/03/10 05:18:58;;;;;;;2.78;2.38;;;;;;;2.41;100.00;97120.28;5000025;28;20049;-89
2021/03/10 05:21:23;;;;;;;4.22;3.83;;;;;;;2.45;100.00;97136.88;4997113;28;20084;-89
2021/03/10 05:23:49;;;;;;;1.80;1.58;;;;;;;2.44;100.00;97133.38;4997216;28;20030;-91
2021/03/10 05:26:14;;;;;;;4.05;1.67;;;;;;;2.48;100.00;97121.78;4996524;28;20037;-81
2021/03/10 05:28:41;;;;;;;18.95;2.13;;;;;;;2.56;100.00;97130.28;5014228;28;20534;-91
2021/03/10 05:31:22;;;;;;;4.68;2.33;;;;;;;2.55;100.00;97139.09;4998529;28;20112;-90
2021/03/10 05:33:47;;;;;;;2.40;2.25;;;;;;;2.56;100.00;97134.69;4998476;28;20025;-91
2021/03/10 05:36:13;;;;;;;2.58;2.38;;;;;;;2.62;100.00;97140.59;4998333;28;20409;-91
2021/03/10 05:38:38;;;;;;;5.63;1.85;;;;;;;2.65;100.00;97129.94;5014695;28;20486;-92
2021/03/10 05:41:04;;;;;;;5.47;3.63;;;;;;;2.66;100.00;97136.06;4998267;28;20022;-91
2021/03/10 05:43:30;;;;;;;6.13;2.67;;;;;;;2.64;100.00;97143.19;5004084;28;20029;-93
2021/03/10 05:45:56;;;;;;;2.15;1.98;;;;;;;2.59;100.00;97135.44;5018329;28;20109;-77
2021/03/10 05:48:22;;;;;;;25.80;3.65;;;;;;;2.69;100.00;97130.69;5014061;28;20053;-92
2021/03/10 05:50:48;;;;;;;7.10;4.85;;;;;;;2.81;100.00;97134.63;5005721;28;20065;-92
2021/03/10 05:53:16;;;;;;;3.22;3.00;;;;;;;2.84;100.00;97124.81;5001415;28;20036;-92
2021/03/10 05:55:42;;;;;;;3.15;2.95;;;;;;;2.82;100.00;97136.38;5000364;28;20525;-91
2021/03/10 05:58:12;;;;;;;3.83;3.28;;;;;;;2.92;100.00;97153.59;5000807;28;20049;-91
2021/03/10 06:00:45;;;;;;;3.97;3.53;;;;;;;2.87;100.00;97156.38;5016353;28;20422;-89
2021/03/10 06:03:12;;;;;;;2.47;2.10;;;;;;;2.88;100.00;97158.13;5000234;28;20040;-90
2021/03/10 06:05:38;;;;;;;3.30;2.40;;;;;;;2.87;100.00;97152.88;4998776;28;20057;-91
2021/03/10 06:08:05;;;;;;;7.05;4.78;;;;;;;2.95;100.00;97159.63;5001265;28;20484;-91
2021/03/10 06:10:44;;;;;;;3.22;2.30;;;;;;;2.92;100.00;97165.03;5000176;28;20026;-90
2021/03/10 06:13:18;;;;;;;3.03;2.83;;;;;;;2.86;100.00;97159.94;4986027;28;20061;-90
2021/03/10 06:15:44;;;;;;;5.75;2.88;;;;;;;2.91;100.00;97162.41;5000987;28;20036;-90
2021/03/10 06:18:25;;;;;;;3.60;3.30;;;;;;;2.88;100.00;97162.53;4999718;28;20033;-91
2021/03/10 06:21:05;;;;;;;5.05;2.55;;;;;;;2.94;100.00;97152.59;5000145;28;20026;-91
2021/03/10 06:23:30;;;;;;;9.65;4.38;;;;;;;2.96;100.00;97171.03;5003058;28;20034;-89
2021/03/10 06:25:56;;;;;;;6.03;4.18;;;;;;;2.94;100.00;97178.16;5003163;28;20022;-90
2021/03/10 06:28:24;;;;;;;3.90;3.30;;;;;;;2.93;100.00;97155.28;5005865;28;20378;-92
2021/03/10 06:30:50;;;;;;;6.90;2.55;;;;;;;2.90;100.00;97168.59;5018483;28;20093;-90
2021/03/10 06:33:23;;;;;;;7.63;3.80;;;;;;;2.87;100.00;97166.94;5001967;28;20060;-90
2021/03/10 06:35:48;;;;;;;;;;;;;;;2.87;100.00;97172.22;5002938;28;20604;-89
2021/03/10 06:38:19;;;;;;;3.47;3.17;;;;;;;2.72;100.00;97157.84;5000716;28;19964;-90
2021/03/10 06:40:50;;;;;;;5.53;4.75;;;;;;;2.96;100.00;97176.31;5000193;28;20026;-89
2021/03/10 06:43:17;;;;;;;9.70;6.07;;;;;;;2.98;100.00;97179.75;5017614;28;20030;-89
2021/03/10 06:45:42;;;;;;;6.50;5.35;;;;;;;2.97;100.00;97178.91;5000447;28;20030;-90
2021/03/10 06:48:17;;;;;;;5.57;3.58;;;;;;;3.11;100.00;97175.72;5000261;28;20037;-90
2021/03/10 06:50:43;;;;;;;6.18;3.70;;;;;;;3.23;100.00;97180.56;5015821;28;20030;-89
2021/03/10 06:53:08;;;;;;;15.25;6.10;;;;;;;3.35;100.00;97181.84;5002331;28;20022;-89
2021/03/10 06:55:44;;;;;;;12.25;6.25;;;;;;;3.37;100.00;97183.50;5000002;28;20033;-91
2021/03/10 06:58:10;;;;;;;8.43;4.28;;;;;;;3.48;100.00;97185.69;5000600;28;20028;-90
2021/03/10 07:00:37;;;;;;;6.93;4.47;;;;;;;3.54;100.00;97186.31;5021016;28;20042;-89
2021/03/10 07:03:03;;;;;;;11.60;6.18;;;;;;;3.71;100.00;97175.94;5002571;28;20113;-90
2021/03/10 07:05:30;;;;;;;6.30;3.63;;;;;;;3.80;100.00;97183.50;5017471;28;20049;-90
2021/03/10 07:07:56;;;;;;;4.88;2.85;;;;;;;3.97;99.61;97190.72;5001819;28;20053;-88
2021/03/10 07:10:23;;;;;;;2.70;2.03;;;;;;;4.07;98.96;97191.19;5002812;28;20033;-90
2021/03/10 07:12:49;;;;;;;6.63;3.13;;;;;;;4.03;98.80;97177.22;5000366;28;20030;-91
2021/03/10 07:15:18;;;;;;;5.63;4.60;;;;;;;4.16;98.29;97190.81;5000923;28;20026;-91
2021/03/10 07:17:44;;;;;;;12.90;3.90;;;;;;;4.04;97.99;97183.38;5000097;28;20057;-90
2021/03/10 07:20:13;;;;;;;17.15;3.35;;;;;;;3.98;97.96;97189.81;5001216;28;20030;-91
2021/03/10 07:23:02;;;;;;;12.45;5.03;;;;;;;3.88;99.25;97198.19;5005205;28;20026;-91
2021/03/10 07:25:36;;;;;;;13.18;4.10;;;;;;;3.67;100.00;97192.84;5006753;28;20034;-91
2021/03/10 07:28:14;;;;;;;5.60;3.20;;;;;;;3.48;100.00;97186.56;5008002;28;20034;-90
2021/03/10 07:30:41;;;;;;;4.18;2.95;;;;;;;3.46;100.00;97188.41;5008801;28;20021;-90
2021/03/10 07:33:26;;;;;;;5.50;4.25;;;;;;;3.42;100.00;97197.38;5023406;28;20021;-90
2021/03/10 07:35:59;;;;;;;10.50;5.07;;;;;;;3.29;100.00;97185.59;5022113;28;20057;-88
2021/03/10 07:38:38;;;;;;;7.00;2.85;;;;;;;3.31;100.00;97189.03;5005419;28;20056;-90
2021/03/10 07:41:08;;;;;;;5.57;3.08;;;;;;;3.34;100.00;97188.91;5001100;28;20030;-90
2021/03/10 07:43:37;;;;;;;7.70;3.30;;;;;;;3.39;100.00;97184.28;4998655;28;20474;-90
2021/03/10 07:46:04;;;;;;;5.53;4.13;;;;;;;3.42;100.00;97192.09;5014896;28;20107;-90
2021/03/10 07:48:32;;;;;;;10.68;5.18;;;;;;;3.35;100.00;97198.56;4997287;28;20026;-90
2021/03/10 07:50:57;;;;;;;7.45;4.65;;;;;;;3.26;100.00;97185.72;4998677;28;20025;-90
2021/03/10 07:53:35;;;;;;;10.60;5.75;;;;;;;3.17;100.00;97186.03;5003650;28;20026;-89
2021/03/10 07:56:00;;;;;;;11.85;6.28;;;;;;;3.19;100.00;97189.50;5003980;28;20034;-88
2021/03/10 07:58:30;;;;;;;10.10;4.85;;;;;;;3.10;100.00;97180.16;5005319;28;20021;-89
2021/03/10 08:00:57;;;;;;;4.72;4.30;;;;;;;3.13;100.00;97184.47;5004795;28;20061;-90
2021/03/10 08:03:33;;;;;;;16.48;8.98;;;;;;;3.11;100.00;97168.66;5004031;28;20060;-89
2021/03/10 08:06:07;;;;;;;9.10;7.32;;;;;;;3.28;100.00;97190.00;5004436;28;20025;-89
2021/03/10 08:08:37;;;;;;;16.95;6.30;;;;;;;3.19;100.00;97192.16;5004707;28;20025;-90
2021/03/10 08:11:16;;;;;;;4.50;4.07;;;;;;;3.11;100.00;97187.16;5002825;28;20022;-90
2021/03/10 08:13:42;;;;;;;8.75;3.97;;;;;;;3.02;100.00;97171.66;5020214;28;20080;-89
2021/03/10 08:16:09;;;;;;;3.03;2.65;;;;;;;3.00;100.00;97192.00;5003106;28;20061;-89
2021/03/10 08:18:36;;;;;;;4.38;3.70;;;;;;;2.95;100.00;97190.44;5005284;28;20052;-89
2021/03/10 08:21:12;;;;;;;10.90;3.97;;;;;;;3.03;100.00;97185.72;5000725;28;20424;-90
2021/03/10 08:23:38;;;;;;;6.68;3.67;;;;;;;3.11;100.00;97175.72;5015761;28;20059;-90
2021/03/10 08:26:05;;;;;;;8.32;3.00;;;;;;;3.26;100.00;97181.25;4998194;28;20076;-91
2021/03/10 08:28:48;;;;;;;3.53;2.88;;;;;;;3.35;100.00;97181.84;4998749;28;20034;-90
2021/03/10 08:31:14;;;;;;;8.10;4.22;;;;;;;3.33;100.00;97175.75;4998866;28;20033;-91
2021/03/10 08:33:51;;;;;;;4.75;2.75;;;;;;;3.39;100.00;97181.66;5016790;28;20025;-90
2021/03/10 08:36:17;;;;;;;4.22;3.10;;;;;;;3.40;100.00;97172.81;4998819;28;20101;-90
2021/03/10 08:38:46;;;;;;;8.82;4.05;;;;;;;3.44;100.00;97185.00;5001221;28;20040;-90
2021/03/10 08:41:12;;;;;;;8.82;4.65;;;;;;;3.35;100.00;97172.13;5007273;28;20025;-89
2021/03/10 08:43:38;;;;;;;5.45;2.88;;;;;;;3.31;100.00;97172.31;5006570;28;20382;-91
2021/03/10 08:46:03;;;;;;;3.90;2.70;;;;;;;3.22;100.00;97189.38;5005988;28;20124;-92
2021/03/10 08:48:33;;;;;;;5.82;3.80;;;;;;;3.09;100.00;97182.84;5005059;28;20168;-91
2021/03/10 08:51:04;;;;;;;5.38;2.65;;;;;;;3.07;100.00;97189.97;5003589;28;20037;-89
2021/03/10 08:53:30;;;;;;;12.38;3.63;;;;;;;3.05;100.00;97186.50;5003116;28;20033;-91
2021/03/10 08:56:07;;;;;;;4.18;3.80;;;;;;;3.18;100.00;97193.94;5019839;28;20470;-88
2021/03/10 08:58:33;;;;;;;13.85;7.78;;;;;;;3.18;100.00;97195.69;5005620;28;20490;-89
2021/03/10 09:00:58;;;;;;;13.55;6.85;;;;;;;3.28;100.00;97187.38;5004618;28;20052;-89
2021/03/10 09:03:24;;;;;;;5.78;3.55;;;;;;;3.39;100.00;97196.63;5005520;28;20501;-90
2021/03/10 09:05:51;;;;;;;11.30;6.82;;;;;;;3.43;100.00;97191.19;5006100;28;20029;-90
2021/03/10 09:08:24;;;;;;;7.25;4.22;;;;;;;3.39;100.00;97173.72;5006901;28;20044;-91
2021/03/10 09:10:51;;;;;;;4.78;2.35;;;;;;;3.24;100.00;97177.84;5005115;28;20040;-90
2021/03/10 09:13:21;;;;;;;3.70;2.40;;;;;;;3.31;100.00;97162.59;5000454;28;20034;-90
2021/03/10 09:15:47;;;;;;;5.57;2.35;;;;;;;3.20;100.00;97172.72;5013508;28;20056;-90
2021/03/10 09:18:13;;;;;;;2.65;2.38;;;;;;;3.28;100.00;97175.94;4995952;28;20033;-89
2021/03/10 09:20:41;;;;;;;3.63;2.97;;;;;;;3.44;100.00;97177.06;4997567;28;20379;-89
2021/03/10 09:23:07;;;;;;;6.13;3.13;;;;;;;3.48;100.00;97186.56;5013239;28;20064;-90
2021/03/10 09:25:35;;;;;;;3.58;3.25;;;;;;;3.56;100.00;97184.50;4999432;28;20049;-92
2021/03/10 09:28:09;;;;;;;1.67;1.45;;;;;;;3.50;100.00;97190.03;4999136;28;20033;-91
2021/03/10 09:30:39;;;;;;;3.00;2.25;;;;;;;3.50;100.00;97186.53;5016563;28;20485;-89
2021/03/10 09:33:05;;;;;;;13.50;5.22;;;;;;;3.35;100.00;97185.34;4998117;28;20024;-90
2021/03/10 09:35:36;;;;;;;3.40;2.70;;;;;;;3.41;100.00;97195.69;5001899;28;20056;-91
2021/03/10 09:38:06;;;;;;;1.75;1.20;;;;;;;3.43;100.00;97190.31;5002987;28;20030;-91
2021/03/10 09:40:40;;;;;;;5.38;2.25;;;;;;;3.48;98.99;97189.22;5003261;28;20038;-89
2021/03/10 09:43:18;;;;;;;2.05;0.88;;;;;;;3.47;99.40;97184.88;5019873;28;20030;-89
2021/03/10 09:45:44;;;;;;;0.57;0.57;;;;;;;3.50;99.93;97184.75;5003222;28;20060;-89
2021/03/10 09:48:12;;;;;;;2.88;1.73;;;;;;;3.35;98.58;97184.50;5002612;28;20547;-88
2021/03/10 09:50:40;;;;;;;0.43;0.43;;;;;;;3.36;98.16;97186.19;5002633;28;20486;-88
2021/03/10 09:53:21;;;;;;;1.38;1.23;;;;;;;3.34;98.44;97185.41;5002945;28;20030;-89
2021/03/10 09:55:46;;;;;;;1.63;1.38;;;;;;;3.24;98.53;97182.25;5018693;28;20036;-90
2021/03/10 09:58:12;;;;;;;1.48;1.10;;;;;;;3.20;99.34;97176.22;5001810;28;20026;-88
2021/03/10 10:00:40;;;;;;;1.50;1.40;;;;;;;3.02;99.70;97190.13;5002205;28;20049;-90
2021/03/10 10:03:06;;;;;;;0.88;0.88;;;;;;;2.94;100.00;97175.50;5004275;28;20030;-91
2021/03/10 10:05:34;;;;;;;0.73;0.60;;;;;;;3.07;100.00;97184.69;5006021;28;20030;-93
2021/03/10 10:08:01;;;;;;;1.20;1.05;;;;;;;3.09;100.00;97180.22;5004915;28;20030;-93
2021/03/10 10:10:29;;;;;;;2.28;1.63;;;;;;;3.09;100.00;97172.28;5006466;28;20119;-93
2021/03/10 10:12:55;;;;;;;1.85;1.70;;;;;;;3.16;100.00;97179.06;5007531;28;20021;-92
2021/03/10 10:15:22;;;;;;;2.47;1.00;;;;;;;3.19;100.00;97168.38;5008179;28;20026;-92
2021/03/10 10:17:50;;;;;;;2.25;2.05;;;;;;;3.26;100.00;97178.63;5009349;28;20034;-90
2021/03/10 10:20:17;;;;;;;2.17;1.83;;;;;;;3.17;100.00;97189.56;5007824;28;20061;-90
2021/03/10 10:22:44;;;;;;;5.53;1.63;;;;;;;3.28;100.00;97174.16;5007364;28;20029;-90
2021/03/10 10:25:16;;;;;;;2.38;2.13;;;;;;;3.40;100.00;97182.50;5004759;28;20026;-87
2021/03/10 10:27:42;;;;;;;3.67;2.20;;;;;;;3.34;99.14;97180.97;5006796;28;20065;-89
2021/03/10 10:30:08;;;;;;;3.83;2.28;;;;;;;3.26;99.90;97191.00;5006251;28;20272;-91
2021/03/10 10:32:34;;;;;;;4.80;3.72;;;;;;;3.35;99.81;97192.41;5002929;28;20010;-89
2021/03/10 10:35:00;;;;;;;10.65;7.32;;;;;;;3.35;99.19;97193.28;4999777;28;20022;-89
2021/03/10 10:37:26;;;;;;;5.50;4.32;;;;;;;3.28;99.82;97179.44;5001877;28;20032;-87
2021/03/10 10:39:51;;;;;;;4.50;2.92;;;;;;;3.33;99.90;97173.97;5003162;28;20494;-89
2021/03/10 10:42:17;;;;;;;4.00;2.03;;;;;;;3.44;99.17;97182.34;5003654;28;20029;-85
2021/03/10 10:44:43;;;;;;;20.55;10.30;;;;;;;3.56;98.35;97189.78;5004716;28;20116;-90
2021/03/10 10:47:10;;;;;;;1.77;1.60;;;;;;;3.47;97.36;97187.50;5005100;28;20046;-88
2021/03/10 10:49:35;;;;;;;0.75;0.73;;;;;;;3.50;96.38;97179.47;5004414;28;20030;-90
2021/03/10 10:52:01;;;;;;;1.58;1.38;;;;;;;3.36;97.03;97184.41;5004884;28;20083;-90
2021/03/10 10:54:26;;;;;;;2.13;1.42;;;;;;;3.36;97.29;97176.47;5005256;28;20512;-90
2021/03/10 10:56:52;;;;;;;5.13;2.83;;;;;;;3.32;97.40;97185.47;5006593;28;20577;-89
2021/03/10 10:59:18;;;;;;;5.32;3.30;;;;;;;3.33;98.99;97173.97;5007323;28;20030;-90
2021/03/10 11:01:44;;;;;;;5.75;4.38;;;;;;;3.27;99.07;97179.50;5007778;28;20026;-89
2021/03/10 11:04:10;;;;;;;5.70;4.22;;;;;;;3.23;99.18;97185.84;5008313;28;20034;-90
2021/03/10 11:06:38;;;;;;;5.93;4.88;;;;;;;3.11;100.00;97158.09;5008020;28;21360;-90
2021/03/10 11:09:08;;;;;;;5.05;3.03;;;;;;;3.23;99.24;97173.47;5006468;28;20034;-92
2021/03/10 11:11:34;;;;;;;3.60;2.33;;;;;;;3.24;99.12;97187.53;5023808;28;20022;-91
2021/03/10 11:14:00;;;;;;;2.72;1.85;;;;;;;3.07;98.24;97177.63;5003395;28;20416;-92
2021/03/10 11:16:26;;;;;;;4.68;2.33;;;;;;;2.91;100.00;97178.25;5002347;28;20117;-91
2021/03/10 11:18:53;;;;;;;3.70;2.17;;;;;;;2.94;100.00;97178.16;5002656;28;20030;-91
2021/03/10 11:21:19;;;;;;;1.35;1.25;;;;;;;2.98;100.00;97164.78;5000125;28;20026;-86
2021/03/10 11:23:44;;;;;;;2.15;1.08;;;;;;;2.93;100.00;97156.16;4999954;28;20029;-90
2021/03/10 11:26:10;;;;;;;0.57;0.57;;;;;;;2.99;100.00;97165.63;5000473;28;20057;-90
2021/03/10 11:28:35;;;;;;;7.50;3.30;;;;;;;3.06;100.00;97154.78;4999181;28;20030;-90
2021/03/10 11:31:01;;;;;;;1.33;1.23;;;;;;;3.13;100.00;97147.47;4998535;28;20029;-90
2021/03/10 11:33:26;;;;;;;3.42;1.70;;;;;;;3.30;100.00;97163.50;5000730;28;20025;-91
2021/03/10 11:35:52;;;;;;;2.47;2.05;;;;;;;3.35;100.00;97163.34;4999216;28;20084;-93